Time;durP1;ratioP1;P1;durP2;ratioP2;P2;SDS_P1;SDS_P2;PMS_P1;PMS_P2;Temp;Humidity;BMP_temperature;BMP_pressure;BME280_temperature;BME280_humidity;BME280_pressure;Samples;Min_cycle;Max_cycle;Signal;HPM_P1;HPM_P2
2021/08/01 00:00:12;;;;;;;2.47;2.10;;;17.40;99.90;;;;;;5093384;28;20246;-68
2021/08/01 00:02:39;;;;;;;3.70;2.13;;;17.30;99.90;;;;;;5093517;28;20165;-67
2021/08/01 00:05:05;;;;;;;3.13;2.20;;;17.40;99.90;;;;;;5093186;28;20421;-67
2021/08/01 00:07:33;;;;;;;2.80;2.50;;;17.30;99.90;;;;;;5093195;28;20413;-67
2021/08/01 00:09:59;;;;;;;2.33;2.13;;;17.30;99.90;;;;;;5093363;28;20520;-69
2021/08/01 00:12:25;;;;;;;3.93;2.83;;;17.20;99.90;;;;;;5093347;28;20444;-67
2021/08/01 00:14:51;;;;;;;2.57;2.37;;;17.20;99.90;;;;;;5093352;28;20177;-67
2021/08/01 00:17:16;;;;;;;7.80;2.87;;;17.10;99.90;;;;;;5093256;28;20969;-67
2021/08/01 00:19:42;;;;;;;2.87;2.60;;;17.10;99.90;;;;;;5092933;28;20167;-67
2021/08/01 00:22:07;;;;;;;3.83;2.53;;;17.20;99.90;;;;;;5093130;28;20689;-68
2021/08/01 00:24:33;;;;;;;3.73;3.43;;;17.20;99.90;;;;;;5093015;28;20738;-68
2021/08/01 00:26:58;;;;;;;3.73;2.70;;;17.10;99.90;;;;;;5092575;28;20165;-67
2021/08/01 00:29:24;;;;;;;3.03;2.70;;;17.00;99.90;;;;;;5093009;28;20178;-67
2021/08/01 00:31:49;;;;;;;2.77;2.47;;;17.10;99.90;;;;;;5092778;28;20191;-67
2021/08/01 00:34:15;;;;;;;2.97;2.53;;;17.00;99.90;;;;;;5092912;28;20532;-67
2021/08/01 00:36:40;;;;;;;3.27;2.50;;;17.10;99.90;;;;;;5092726;28;20238;-68
2021/08/01 00:39:06;;;;;;;6.17;3.00;;;17.00;99.90;;;;;;5093055;28;20820;-68
2021/08/01 00:41:33;;;;;;;4.03;2.40;;;17.00;99.90;;;;;;5092579;28;20198;-68
2021/08/01 00:43:58;;;;;;;2.73;2.47;;;17.10;99.90;;;;;;5092772;28;20201;-68
2021/08/01 00:46:24;;;;;;;2.60;2.33;;;17.10;99.90;;;;;;5092505;28;20494;-69
2021/08/01 00:48:49;;;;;;;2.63;2.43;;;17.10;99.90;;;;;;5092388;28;20266;-67
2021/08/01 00:51:15;;;;;;;2.80;2.60;;;17.10;99.90;;;;;;5092412;28;20248;-67
2021/08/01 00:53:41;;;;;;;3.63;2.27;;;17.10;99.90;;;;;;5092623;28;20228;-68
2021/08/01 00:56:06;;;;;;;2.87;2.20;;;17.00;99.90;;;;;;5092641;28;20189;-68
2021/08/01 00:58:32;;;;;;;7.90;2.50;;;17.10;99.90;;;;;;5092415;28;20487;-68
2021/08/01 01:01:05;;;;;;;2.70;2.50;;;17.00;99.90;;;;;;5092520;28;20210;-68
2021/08/01 01:03:58;;;;;;;2.90;2.00;;;17.00;99.90;;;;;;5092368;28;20185;-68
2021/08/01 01:06:40;;;;;;;4.30;2.57;;;16.90;99.90;;;;;;5092665;28;20512;-67
2021/08/01 01:09:32;;;;;;;4.83;2.23;;;16.90;99.90;;;;;;5092308;28;20404;-68
2021/08/01 01:12:04;;;;;;;2.50;2.30;;;16.90;99.90;;;;;;5092402;28;20465;-68
2021/08/01 01:14:31;;;;;;;3.13;2.43;;;16.90;99.90;;;;;;5092420;28;20473;-67
2021/08/01 01:17:01;;;;;;;2.53;2.33;;;16.80;99.90;;;;;;5092252;28;20422;-69
2021/08/01 01:19:41;;;;;;;2.73;2.53;;;16.70;99.90;;;;;;5092088;28;20529;-68
2021/08/01 01:22:11;;;;;;;2.87;2.40;;;16.70;99.90;;;;;;5091972;28;20504;-68
2021/08/01 01:24:39;;;;;;;2.40;2.20;;;16.60;99.90;;;;;;5092175;28;20423;-67
2021/08/01 01:27:12;;;;;;;8.07;2.80;;;16.60;99.90;;;;;;5091991;28;20851;-68
2021/08/01 01:30:01;;;;;;;3.63;2.30;;;16.70;99.90;;;;;;5092031;28;20400;-67
2021/08/01 01:32:31;;;;;;;2.70;2.50;;;16.80;99.90;;;;;;5091894;28;20416;-68
2021/08/01 01:35:05;;;;;;;2.77;2.53;;;16.80;99.90;;;;;;5092367;28;20408;-68
2021/08/01 01:37:33;;;;;;;3.67;2.47;;;16.70;99.90;;;;;;5091960;28;20399;-68
2021/08/01 01:40:02;;;;;;;2.60;2.40;;;16.60;99.90;;;;;;5091186;28;20429;-69
2021/08/01 01:42:29;;;;;;;2.60;2.30;;;16.70;99.90;;;;;;5091747;28;20467;-67
2021/08/01 01:44:57;;;;;;;2.63;2.43;;;16.80;99.90;;;;;;5091887;28;20460;-67
2021/08/01 01:47:23;;;;;;;3.53;2.87;;;16.80;99.90;;;;;;5090853;28;20400;-67
2021/08/01 01:49:53;;;;;;;2.50;2.30;;;16.80;99.90;;;;;;5091842;28;20432;-68
2021/08/01 01:52:21;;;;;;;3.97;2.80;;;16.70;99.90;;;;;;5088788;28;20412;-68
2021/08/01 01:54:46;;;;;;;3.70;2.73;;;16.60;99.90;;;;;;5090749;28;20422;-69
2021/08/01 01:57:12;;;;;;;2.63;2.43;;;16.60;99.90;;;;;;5091826;28;20410;-68
2021/08/01 01:59:38;;;;;;;3.03;2.73;;;16.60;99.90;;;;;;5091755;28;20188;-68
2021/08/01 02:02:06;;;;;;;3.30;3.00;;;16.60;99.90;;;;;;5091794;28;20211;-67
2021/08/01 02:04:32;;;;;;;3.40;2.60;;;16.60;99.90;;;;;;5091570;28;20973;-68
2021/08/01 02:06:59;;;;;;;3.20;2.90;;;16.60;99.90;;;;;;5091696;28;20396;-68
2021/08/01 02:09:45;;;;;;;4.40;3.13;;;16.60;99.90;;;;;;5091693;28;20167;-68
2021/08/01 02:12:18;;;;;;;3.90;2.90;;;16.70;99.90;;;;;;5091567;28;20433;-69
2021/08/01 02:14:56;;;;;;;3.20;2.90;;;16.60;99.90;;;;;;5091750;28;20419;-68
2021/08/01 02:17:50;;;;;;;3.30;3.00;;;16.60;99.90;;;;;;5091580;28;20498;-68
2021/08/01 02:20:19;;;;;;;2.50;2.30;;;16.50;99.90;;;;;;5091488;28;20424;-68
2021/08/01 02:22:46;;;;;;;3.30;3.00;;;16.40;99.90;;;;;;5091529;28;20824;-68
2021/08/01 02:25:12;;;;;;;3.63;2.80;;;16.40;99.90;;;;;;5091751;28;20886;-68
2021/08/01 02:27:41;;;;;;;3.27;3.00;;;16.50;99.90;;;;;;5091539;28;20392;-68
2021/08/01 02:30:07;;;;;;;5.23;2.87;;;16.40;99.90;;;;;;5091462;28;20428;-68
2021/08/01 02:32:33;;;;;;;3.73;3.23;;;16.30;99.90;;;;;;5091367;28;20461;-68
2021/08/01 02:35:00;;;;;;;3.10;2.90;;;16.40;99.90;;;;;;5091395;28;20395;-67
2021/08/01 02:37:27;;;;;;;3.87;3.57;;;16.40;99.90;;;;;;5091578;28;20403;-67
2021/08/01 02:39:54;;;;;;;5.40;3.07;;;16.40;99.90;;;;;;5091341;28;20441;-67
2021/08/01 02:42:22;;;;;;;5.17;2.90;;;16.40;99.90;;;;;;5091210;28;20460;-68
2021/08/01 02:44:47;;;;;;;3.70;3.30;;;16.40;99.90;;;;;;5091329;28;20776;-67
2021/08/01 02:47:18;;;;;;;3.60;3.30;;;16.40;99.90;;;;;;5091340;28;20412;-67
2021/08/01 02:49:45;;;;;;;3.87;3.57;;;16.40;99.90;;;;;;5092073;28;20170;-67
2021/08/01 02:52:15;;;;;;;3.90;3.27;;;16.20;99.90;;;;;;5094958;28;20423;-68
2021/08/01 02:54:43;;;;;;;3.03;2.60;;;16.20;99.90;;;;;;5094861;28;20400;-68
2021/08/01 02:57:12;;;;;;;3.30;3.00;;;16.20;99.90;;;;;;5094883;28;20913;-68
2021/08/01 02:59:38;;;;;;;3.27;2.97;;;16.10;99.90;;;;;;5094485;28;20405;-67
2021/08/01 03:02:06;;;;;;;3.63;3.30;;;16.20;99.90;;;;;;5094559;28;20447;-67
2021/08/01 03:04:38;;;;;;;3.50;3.20;;;16.20;99.90;;;;;;5094670;28;20434;-67
2021/08/01 03:07:10;;;;;;;3.80;3.50;;;16.10;99.90;;;;;;5094629;28;20396;-68
2021/08/01 03:09:35;;;;;;;3.97;3.57;;;16.10;99.90;;;;;;5094789;28;20400;-68
2021/08/01 03:12:15;;;;;;;3.30;3.00;;;16.10;99.90;;;;;;5094410;28;20400;-68
2021/08/01 03:14:41;;;;;;;3.70;3.30;;;16.20;99.90;;;;;;5094543;28;20163;-68
2021/08/01 03:17:07;;;;;;;4.63;4.23;;;16.20;99.90;;;;;;5094251;28;20450;-67
2021/08/01 03:19:39;;;;;;;3.27;3.00;;;16.10;99.90;;;;;;5094340;28;20404;-70
2021/08/01 03:22:04;;;;;;;3.20;2.80;;;16.10;99.90;;;;;;5094294;28;20570;-68
2021/08/01 03:24:30;;;;;;;3.83;3.53;;;16.20;99.90;;;;;;5094229;28;20479;-68
2021/08/01 03:26:55;;;;;;;3.67;3.30;;;16.10;99.90;;;;;;5094106;28;20261;-68
2021/08/01 03:29:21;;;;;;;4.30;3.27;;;16.10;99.90;;;;;;5094366;28;20177;-70
2021/08/01 03:31:46;;;;;;;3.53;3.23;;;16.00;99.90;;;;;;5093949;28;20199;-70
2021/08/01 03:34:12;;;;;;;4.50;4.10;;;16.00;99.90;;;;;;5094308;28;20182;-70
2021/08/01 03:36:37;;;;;;;3.47;2.93;;;16.00;99.90;;;;;;5094091;28;20174;-69
2021/08/01 03:39:04;;;;;;;3.67;3.30;;;15.90;99.90;;;;;;5094063;28;20177;-69
2021/08/01 03:41:29;;;;;;;4.60;3.07;;;15.90;99.90;;;;;;5093789;28;20237;-69
2021/08/01 03:43:55;;;;;;;7.17;4.20;;;16.00;99.90;;;;;;5093897;28;20899;-68
2021/08/01 03:46:20;;;;;;;3.67;3.37;;;16.10;99.90;;;;;;5093953;28;20208;-68
2021/08/01 03:48:45;;;;;;;3.37;3.07;;;16.10;99.90;;;;;;5093712;28;20182;-69
2021/08/01 03:51:11;;;;;;;3.50;3.20;;;16.10;99.90;;;;;;5093061;28;20248;-68
2021/08/01 03:53:36;;;;;;;3.40;3.07;;;16.10;99.90;;;;;;5093642;28;20203;-68
2021/08/01 03:56:03;;;;;;;3.40;2.70;;;16.10;99.90;;;;;;5093770;28;20177;-69
2021/08/01 03:58:29;;;;;;;3.80;3.40;;;16.10;99.90;;;;;;5092951;28;20173;-69
2021/08/01 04:00:54;;;;;;;5.03;3.60;;;16.10;99.90;;;;;;5093334;28;20816;-68
2021/08/01 04:03:20;;;;;;;3.47;3.17;;;16.10;99.90;;;;;;5092970;28;20474;-69
2021/08/01 04:05:45;;;;;;;3.30;2.83;;;16.20;99.90;;;;;;5093613;28;20698;-68
2021/08/01 04:08:11;;;;;;;3.80;3.50;;;16.20;99.90;;;;;;5093208;28;20263;-68
2021/08/01 04:10:36;;;;;;;4.87;3.47;;;16.30;99.90;;;;;;5093260;28;20209;-70
2021/08/01 04:13:02;;;;;;;3.50;3.20;;;16.30;99.90;;;;;;5093186;28;20261;-68
2021/08/01 04:15:28;;;;;;;3.93;3.40;;;16.40;99.90;;;;;;5093272;28;20641;-68
2021/08/01 04:17:53;;;;;;;3.67;3.37;;;16.30;99.90;;;;;;5093194;28;20412;-68
2021/08/01 04:20:19;;;;;;;4.87;3.20;;;16.30;99.90;;;;;;5093024;28;20725;-68
2021/08/01 04:22:44;;;;;;;5.30;4.20;;;16.40;99.90;;;;;;5093417;28;20177;-68
2021/08/01 04:25:10;;;;;;;3.27;3.00;;;16.40;99.90;;;;;;5093450;28;20277;-68
2021/08/01 04:27:35;;;;;;;3.30;3.10;;;16.40;99.90;;;;;;5093448;28;20166;-68
2021/08/01 04:30:01;;;;;;;3.30;3.03;;;16.40;99.90;;;;;;5093050;28;20627;-69
2021/08/01 04:32:27;;;;;;;2.83;2.50;;;16.40;99.90;;;;;;5092844;28;20180;-68
2021/08/01 04:34:52;;;;;;;3.20;3.00;;;16.40;99.90;;;;;;5092944;28;20407;-68
2021/08/01 04:37:18;;;;;;;3.57;3.27;;;16.40;99.90;;;;;;5092881;28;20520;-69
2021/08/01 04:39:43;;;;;;;4.10;3.80;;;16.40;99.90;;;;;;5092802;28;20644;-69
2021/08/01 04:42:09;;;;;;;5.60;3.20;;;16.50;99.90;;;;;;5092839;28;20197;-69
2021/08/01 04:44:34;;;;;;;3.63;3.33;;;16.40;99.90;;;;;;5092899;28;20204;-69
2021/08/01 04:47:00;;;;;;;6.20;5.60;;;16.50;99.90;;;;;;5092921;28;20170;-69
2021/08/01 04:49:25;;;;;;;4.53;3.93;;;16.60;99.90;;;;;;5092838;28;20847;-69
2021/08/01 04:51:51;;;;;;;4.27;3.70;;;16.60;99.90;;;;;;5093101;28;20195;-68
2021/08/01 04:54:16;;;;;;;4.20;3.70;;;16.60;99.90;;;;;;5092667;28;20190;-68
2021/08/01 04:56:45;;;;;;;6.50;3.20;;;16.70;99.90;;;;;;5092484;28;20207;-69
2021/08/01 04:59:12;;;;;;;3.63;3.10;;;16.90;99.90;;;;;;5092469;28;20180;-68
2021/08/01 05:01:37;;;;;;;3.60;3.20;;;16.80;99.90;;;;;;5092165;28;20468;-68
2021/08/01 05:04:03;;;;;;;4.20;3.27;;;16.80;99.90;;;;;;5092465;28;20420;-68
2021/08/01 05:06:28;;;;;;;3.50;3.23;;;16.90;99.90;;;;;;5092278;28;20181;-68
2021/08/01 05:08:54;;;;;;;3.20;2.87;;;17.00;99.90;;;;;;5092489;28;20225;-69
2021/08/01 05:11:19;;;;;;;3.80;3.17;;;17.00;99.90;;;;;;5092186;28;20196;-68
2021/08/01 05:13:45;;;;;;;3.77;3.37;;;17.20;99.90;;;;;;5091521;28;20184;-68
2021/08/01 05:16:17;;;;;;;3.23;2.90;;;17.20;99.90;;;;;;5092171;28;20180;-69
2021/08/01 05:18:43;;;;;;;3.63;3.33;;;17.30;99.90;;;;;;5092163;28;20174;-69
2021/08/01 05:21:08;;;;;;;4.20;3.60;;;17.30;99.90;;;;;;5091890;28;20534;-68
2021/08/01 05:23:34;;;;;;;3.53;3.20;;;17.30;99.90;;;;;;5092047;28;20893;-68
2021/08/01 05:25:59;;;;;;;3.50;3.20;;;17.40;99.90;;;;;;5092242;28;20176;-68
2021/08/01 05:28:24;;;;;;;4.10;3.00;;;17.50;99.90;;;;;;5091998;28;20180;-67
2021/08/01 05:30:50;;;;;;;4.97;4.13;;;17.60;99.90;;;;;;5092022;28;20589;-67
2021/08/01 05:33:15;;;;;;;4.30;3.80;;;17.60;99.90;;;;;;5092054;28;20173;-67
2021/08/01 05:35:41;;;;;;;3.97;3.67;;;17.30;99.90;;;;;;5092033;28;20200;-67
2021/08/01 05:38:07;;;;;;;6.33;3.40;;;17.40;99.90;;;;;;5092383;28;20521;-67
2021/08/01 05:40:33;;;;;;;4.70;4.30;;;17.50;99.90;;;;;;5091898;28;20212;-67
2021/08/01 05:42:59;;;;;;;5.53;3.97;;;17.40;99.90;;;;;;5091811;28;20778;-68
2021/08/01 05:45:26;;;;;;;4.63;3.33;;;17.50;99.90;;;;;;5092029;28;20413;-69
2021/08/01 05:47:52;;;;;;;4.30;3.30;;;17.60;99.90;;;;;;5091809;28;20936;-68
2021/08/01 05:50:18;;;;;;;3.40;3.10;;;17.40;99.90;;;;;;5091747;28;20423;-68
2021/08/01 05:52:43;;;;;;;6.63;3.60;;;17.40;99.90;;;;;;5091830;28;20412;-68
2021/08/01 05:55:09;;;;;;;4.53;3.70;;;17.50;99.90;;;;;;5091895;28;20196;-68
2021/08/01 05:57:34;;;;;;;8.73;3.70;;;17.60;99.90;;;;;;5091887;28;20176;-68
2021/08/01 06:00:00;;;;;;;4.60;4.07;;;17.80;99.90;;;;;;5091716;28;20636;-68
2021/08/01 06:02:25;;;;;;;4.67;3.63;;;18.00;99.90;;;;;;5091646;28;20210;-68
2021/08/01 06:04:51;;;;;;;4.00;3.70;;;17.80;99.90;;;;;;5091840;28;20260;-68
2021/08/01 06:07:17;;;;;;;3.97;3.67;;;17.70;99.90;;;;;;5091629;28;20210;-67
2021/08/01 06:09:43;;;;;;;6.13;4.13;;;17.80;99.90;;;;;;5091604;28;20438;-68
2021/08/01 06:12:12;;;;;;;4.47;4.17;;;17.90;99.90;;;;;;5091469;28;20166;-67
2021/08/01 06:14:38;;;;;;;4.37;4.07;;;17.60;99.90;;;;;;5091608;28;20408;-68
2021/08/01 06:17:03;;;;;;;6.87;4.13;;;17.80;99.90;;;;;;5091534;28;20418;-70
2021/08/01 06:19:28;;;;;;;3.57;3.23;;;18.10;99.90;;;;;;5091373;28;20235;-71
2021/08/01 06:21:54;;;;;;;4.03;3.10;;;18.10;99.90;;;;;;5091439;28;20293;-70
2021/08/01 06:24:19;;;;;;;3.33;3.00;;;18.50;99.90;;;;;;5091577;28;20636;-68
2021/08/01 06:26:45;;;;;;;3.10;2.90;;;18.50;99.90;;;;;;5092180;28;20875;-68
2021/08/01 06:29:10;;;;;;;4.83;2.93;;;18.50;99.90;;;;;;5103118;28;20159;-71
2021/08/01 06:31:36;;;;;;;4.93;3.57;;;18.40;99.90;;;;;;5105690;28;20188;-67
2021/08/01 06:34:01;;;;;;;3.60;3.07;;;18.50;99.90;;;;;;5115812;28;20184;-67
2021/08/01 06:36:27;;;;;;;3.90;3.60;;;18.90;99.90;;;;;;5087110;28;20212;-68
2021/08/01 06:38:52;;;;;;;9.60;6.40;;;19.60;99.90;;;;;;5092273;28;20165;-68
2021/08/01 06:41:18;;;;;;;6.33;5.70;;;19.60;99.90;;;;;;5074540;28;20204;-68
2021/08/01 06:43:43;;;;;;;6.27;4.60;;;19.60;99.90;;;;;;5087256;28;20161;-69
2021/08/01 06:46:09;;;;;;;5.30;2.60;;;19.80;99.90;;;;;;5098552;28;20179;-68
2021/08/01 06:48:34;;;;;;;3.67;2.53;;;19.70;99.90;;;;;;5085081;28;20657;-67
2021/08/01 06:51:02;;;;;;;2.50;2.30;;;19.60;99.90;;;;;;5074607;28;20204;-67
2021/08/01 06:53:28;;;;;;;3.27;2.47;;;19.30;99.90;;;;;;5092707;28;20520;-67
2021/08/01 06:55:53;;;;;;;3.97;2.40;;;19.30;99.90;;;;;;5094844;28;20416;-69
2021/08/01 06:58:19;;;;;;;3.43;2.20;;;19.40;99.90;;;;;;5094685;28;20411;-68
2021/08/01 07:00:49;;;;;;;2.63;1.83;;;18.50;99.90;;;;;;5099114;28;20199;-67
2021/08/01 07:03:14;;;;;;;2.27;2.07;;;18.60;99.90;;;;;;5115043;28;20495;-68
2021/08/01 07:05:40;;;;;;;3.00;2.37;;;19.10;99.90;;;;;;5099133;28;20509;-68
2021/08/01 07:08:06;;;;;;;3.23;2.10;;;18.90;99.90;;;;;;5082492;28;20177;-68
2021/08/01 07:10:32;;;;;;;2.37;2.17;;;18.50;99.90;;;;;;5077750;28;20483;-69
2021/08/01 07:13:04;;;;;;;4.53;2.17;;;18.90;99.90;;;;;;5074324;28;20196;-68
2021/08/01 07:15:30;;;;;;;2.83;2.63;;;19.10;99.90;;;;;;5074438;28;20170;-69
2021/08/01 07:17:57;;;;;;;2.70;2.50;;;19.10;99.90;;;;;;5074217;28;20470;-68
2021/08/01 07:20:24;;;;;;;2.57;1.87;;;19.20;99.90;;;;;;5081684;28;20432;-68
2021/08/01 07:22:50;;;;;;;2.83;2.20;;;19.50;99.90;;;;;;5094425;28;20416;-67
2021/08/01 07:25:15;;;;;;;3.60;2.20;;;19.50;99.90;;;;;;5094534;28;20491;-67
2021/08/01 07:27:41;;;;;;;2.60;2.30;;;19.20;99.90;;;;;;5094108;28;20540;-67
2021/08/01 07:30:07;;;;;;;2.30;2.00;;;19.00;99.90;;;;;;5094360;28;20198;-67
2021/08/01 07:32:32;;;;;;;2.90;2.20;;;19.40;99.90;;;;;;5094346;28;20177;-67
2021/08/01 07:34:58;;;;;;;3.63;2.40;;;19.40;99.90;;;;;;5093884;28;20413;-67
2021/08/01 07:37:23;;;;;;;4.03;2.67;;;19.20;99.90;;;;;;5092888;28;20212;-67
2021/08/01 07:39:49;;;;;;;2.53;2.33;;;19.10;99.90;;;;;;5093698;28;20197;-68
2021/08/01 07:42:14;;;;;;;5.43;2.60;;;19.50;99.90;;;;;;5094024;28;20243;-67
2021/08/01 07:44:51;;;;;;;2.43;2.23;;;19.40;99.90;;;;;;5093897;28;20241;-67
2021/08/01 07:47:19;;;;;;;5.43;2.53;;;19.70;99.90;;;;;;5094200;28;20202;-70
2021/08/01 07:49:46;;;;;;;3.03;2.00;;;20.00;99.90;;;;;;5093938;28;20461;-67
2021/08/01 07:52:12;;;;;;;3.00;2.40;;;20.10;99.90;;;;;;5094063;28;20419;-68
2021/08/01 07:54:41;;;;;;;2.60;2.40;;;19.80;99.90;;;;;;5093826;28;20446;-72
2021/08/01 07:57:08;;;;;;;2.80;2.57;;;20.00;99.90;;;;;;5093664;28;20415;-68
2021/08/01 07:59:36;;;;;;;3.10;2.10;;;20.40;99.90;;;;;;5093495;28;20446;-68
2021/08/01 08:02:02;;;;;;;3.50;2.73;;;20.70;99.90;;;;;;5093538;28;20463;-68
2021/08/01 08:04:28;;;;;;;4.27;2.50;;;19.80;99.90;;;;;;5093699;28;20846;-68
2021/08/01 08:06:54;;;;;;;6.03;2.67;;;20.30;99.90;;;;;;5093551;28;20175;-68
2021/08/01 08:09:21;;;;;;;6.30;2.20;;;20.60;99.90;;;;;;5093445;28;20161;-68
2021/08/01 08:11:48;;;;;;;2.93;2.60;;;20.50;99.90;;;;;;5093123;28;20469;-67
2021/08/01 08:14:14;;;;;;;2.67;2.47;;;20.50;99.90;;;;;;5093243;28;20419;-68
2021/08/01 08:16:39;;;;;;;2.70;1.97;;;20.30;99.90;;;;;;5093394;28;20408;-68
2021/08/01 08:19:05;;;;;;;4.30;2.13;;;20.40;99.90;;;;;;5093564;28;20402;-68
2021/08/01 08:21:30;;;;;;;3.80;3.50;;;19.90;99.90;;;;;;5093430;28;20236;-68
2021/08/01 08:23:56;;;;;;;2.70;2.20;;;19.70;99.90;;;;;;5093639;28;20568;-68
2021/08/01 08:26:21;;;;;;;3.10;2.40;;;19.50;99.90;;;;;;5093444;28;20256;-68
2021/08/01 08:28:47;;;;;;;2.50;2.30;;;19.30;99.90;;;;;;5093119;28;20171;-68
2021/08/01 08:31:12;;;;;;;4.23;3.00;;;19.90;99.90;;;;;;5092917;28;20715;-67
2021/08/01 08:33:38;;;;;;;3.53;3.23;;;20.00;99.90;;;;;;5092965;28;20611;-68
2021/08/01 08:36:03;;;;;;;3.20;2.63;;;19.90;99.90;;;;;;5093009;28;20496;-68
2021/08/01 08:38:29;;;;;;;4.93;3.20;;;20.20;99.90;;;;;;5091714;28;20651;-67
2021/08/01 08:40:54;;;;;;;4.10;3.47;;;20.00;99.90;;;;;;5092535;28;20267;-68
2021/08/01 08:43:20;;;;;;;2.17;1.97;;;20.40;99.90;;;;;;5093004;28;20165;-68
2021/08/01 08:45:45;;;;;;;3.20;2.90;;;21.40;99.90;;;;;;5093095;28;20176;-68
2021/08/01 08:48:12;;;;;;;3.53;2.60;;;21.30;99.90;;;;;;5092889;28;20161;-68
2021/08/01 08:50:40;;;;;;;3.20;2.93;;;21.40;99.90;;;;;;5092792;28;20674;-68
2021/08/01 08:53:06;;;;;;;2.47;2.27;;;20.70;99.90;;;;;;5092580;28;20410;-68
2021/08/01 08:55:35;;;;;;;2.80;2.40;;;20.70;99.90;;;;;;5092428;28;20414;-68
2021/08/01 08:58:03;;;;;;;5.20;3.70;;;20.40;99.90;;;;;;5092228;28;20401;-69
2021/08/01 09:00:29;;;;;;;4.37;2.97;;;21.10;99.90;;;;;;5091758;28;20425;-67
2021/08/01 09:02:55;;;;;;;5.50;4.33;;;20.60;99.90;;;;;;5092271;28;20413;-68
2021/08/01 09:05:22;;;;;;;4.13;3.53;;;20.20;99.90;;;;;;5092348;28;20958;-68
2021/08/01 09:07:47;;;;;;;4.23;3.70;;;20.60;99.90;;;;;;5091575;28;20451;-67
2021/08/01 09:10:13;;;;;;;3.60;3.30;;;20.50;99.90;;;;;;5092056;28;20451;-68
2021/08/01 09:12:43;;;;;;;5.80;4.80;;;20.70;99.90;;;;;;5092082;28;20185;-69
2021/08/01 09:15:10;;;;;;;3.23;2.87;;;20.90;99.90;;;;;;5091421;28;20167;-69
2021/08/01 09:17:37;;;;;;;3.70;3.40;;;20.90;99.90;;;;;;5092331;28;20775;-69
2021/08/01 09:20:19;;;;;;;3.73;3.40;;;21.30;99.90;;;;;;5092318;28;20835;-69
2021/08/01 09:23:08;;;;;;;6.27;3.87;;;21.40;99.90;;;;;;5092326;28;20967;-68
2021/08/01 09:25:39;;;;;;;5.57;4.23;;;21.70;99.90;;;;;;5091656;28;20492;-69
2021/08/01 09:28:16;;;;;;;5.97;4.87;;;21.90;99.90;;;;;;5092125;28;20387;-69
2021/08/01 09:30:50;;;;;;;3.43;3.13;;;21.90;99.90;;;;;;5092146;28;20834;-68
2021/08/01 09:33:35;;;;;;;3.87;3.57;;;22.80;99.90;;;;;;5092429;28;20600;-68
2021/08/01 09:36:15;;;;;;;3.50;2.53;;;22.70;99.90;;;;;;5085614;28;20408;-72
2021/08/01 09:38:52;;;;;;;4.50;2.57;;;21.20;99.90;;;;;;5092057;28;20407;-73
2021/08/01 09:41:19;;;;;;;13.40;10.90;;;21.50;99.90;;;;;;5078210;28;20815;-70
2021/08/01 09:43:51;;;;;;;3.20;2.70;;;21.90;99.90;;;;;;5080383;28;20946;-68
2021/08/01 09:46:17;;;;;;;2.80;2.60;;;21.90;99.90;;;;;;5091751;28;20435;-70
2021/08/01 09:48:43;;;;;;;2.10;1.90;;;21.40;99.90;;;;;;5090460;28;20421;-68
2021/08/01 09:51:10;;;;;;;2.50;2.30;;;21.80;99.90;;;;;;5091979;28;20433;-69
2021/08/01 09:53:39;;;;;;;4.07;2.60;;;21.70;99.90;;;;;;5092070;28;20389;-68
2021/08/01 09:56:19;;;;;;;2.63;2.10;;;21.80;99.90;;;;;;5091733;28;20961;-68
2021/08/01 09:58:46;;;;;;;3.80;2.80;;;22.40;99.90;;;;;;5091873;28;20470;-68
2021/08/01 10:01:12;;;;;;;2.80;2.60;;;22.20;99.90;;;;;;5095021;28;21043;-68
2021/08/01 10:03:45;;;;;;;7.60;4.70;;;21.20;99.90;;;;;;5095369;28;20801;-67
2021/08/01 10:06:11;;;;;;;8.00;4.90;;;21.70;99.90;;;;;;5077498;28;20389;-67
2021/08/01 10:08:48;;;;;;;4.37;2.93;;;21.20;99.90;;;;;;5095568;28;20405;-68
2021/08/01 10:11:18;;;;;;;10.53;9.43;;;21.20;99.90;;;;;;5096072;28;20531;-68
2021/08/01 10:13:46;;;;;;;4.40;3.67;;;21.80;99.90;;;;;;5095620;28;20407;-68
2021/08/01 10:16:12;;;;;;;2.20;2.10;;;22.40;99.90;;;;;;5095876;28;20903;-68
2021/08/01 10:18:39;;;;;;;4.00;2.77;;;22.20;99.90;;;;;;5095252;28;20810;-68
2021/08/01 10:21:06;;;;;;;2.90;2.70;;;21.50;99.90;;;;;;5095372;28;20548;-70
2021/08/01 10:23:38;;;;;;;2.60;2.40;;;21.40;99.90;;;;;;5094873;28;20408;-68
2021/08/01 10:26:05;;;;;;;2.83;2.63;;;21.80;99.90;;;;;;5095674;28;20408;-69
2021/08/01 10:28:32;;;;;;;2.93;2.47;;;21.60;99.90;;;;;;5094121;28;20868;-68
2021/08/01 10:31:02;;;;;;;4.87;4.07;;;21.60;99.90;;;;;;5077437;28;20484;-69
2021/08/01 10:33:37;;;;;;;4.47;4.07;;;21.60;99.90;;;;;;5074898;28;20780;-69
2021/08/01 10:36:05;;;;;;;3.53;3.23;;;21.70;99.90;;;;;;5087101;28;20464;-68
2021/08/01 10:38:35;;;;;;;3.23;2.93;;;21.20;99.90;;;;;;5095229;28;20408;-69
2021/08/01 10:41:01;;;;;;;2.83;2.60;;;21.70;99.90;;;;;;5095161;28;20572;-68
2021/08/01 10:43:30;;;;;;;2.97;2.77;;;22.20;99.90;;;;;;5095094;28;20741;-68
2021/08/01 10:45:57;;;;;;;3.93;3.53;;;22.00;99.90;;;;;;5094498;28;20411;-69
2021/08/01 10:48:25;;;;;;;3.90;3.50;;;21.90;99.90;;;;;;5081508;28;20483;-68
2021/08/01 10:50:51;;;;;;;2.97;2.60;;;22.80;99.90;;;;;;5077939;28;20777;-69
2021/08/01 10:53:23;;;;;;;4.30;3.90;;;22.70;99.90;;;;;;5094854;28;20795;-68
2021/08/01 10:55:51;;;;;;;7.50;5.90;;;23.40;99.90;;;;;;5087548;28;20419;-66
2021/08/01 10:58:18;;;;;;;2.80;2.60;;;23.80;99.90;;;;;;5076493;28;20407;-68
2021/08/01 11:00:56;;;;;;;2.23;2.13;;;22.50;99.90;;;;;;5094471;28;20434;-68
2021/08/01 11:03:22;;;;;;;2.63;1.93;;;22.20;99.90;;;;;;5094549;28;20942;-68
2021/08/01 11:05:48;;;;;;;2.53;2.33;;;23.00;99.90;;;;;;5094313;28;20418;-68
2021/08/01 11:08:14;;;;;;;4.37;2.83;;;22.30;99.90;;;;;;5094521;28;20628;-68
2021/08/01 11:10:43;;;;;;;2.67;2.47;;;22.60;99.90;;;;;;5093794;28;20433;-68
2021/08/01 11:13:24;;;;;;;4.10;2.10;;;21.90;99.90;;;;;;5082231;28;20214;-69
2021/08/01 11:15:50;;;;;;;2.90;2.70;;;22.10;99.90;;;;;;5094497;28;20403;-69
2021/08/01 11:18:36;;;;;;;3.50;2.93;;;21.90;99.90;;;;;;5084686;28;20425;-69
2021/08/01 11:21:05;;;;;;;2.63;2.03;;;22.40;99.90;;;;;;5073955;28;20467;-69
2021/08/01 11:23:46;;;;;;;2.30;2.10;;;22.80;99.90;;;;;;5074006;28;20402;-68
2021/08/01 11:26:13;;;;;;;2.87;2.47;;;21.70;99.90;;;;;;5074395;28;20382;-67
2021/08/01 11:28:41;;;;;;;2.10;2.00;;;21.80;99.90;;;;;;5073986;28;20410;-68
2021/08/01 11:31:21;;;;;;;2.60;2.40;;;22.30;99.90;;;;;;5072558;28;20442;-67
2021/08/01 11:33:49;;;;;;;4.50;2.40;;;22.30;99.90;;;;;;5073849;28;20430;-68
2021/08/01 11:36:17;;;;;;;3.23;2.60;;;22.60;99.90;;;;;;5089609;28;20474;-67
2021/08/01 11:38:50;;;;;;;2.47;2.20;;;22.20;99.90;;;;;;5093964;28;20420;-67
2021/08/01 11:41:33;;;;;;;2.17;1.97;;;22.60;99.90;;;;;;5089576;28;20464;-68
2021/08/01 11:44:18;;;;;;;3.70;2.40;;;22.40;99.90;;;;;;5093328;28;20411;-67
2021/08/01 11:46:54;;;;;;;3.10;2.20;;;22.70;99.90;;;;;;5093732;28;20401;-67
2021/08/01 11:49:30;;;;;;;2.57;2.27;;;22.00;99.90;;;;;;5093848;28;20398;-67
2021/08/01 11:51:59;;;;;;;3.50;2.20;;;22.50;99.90;;;;;;5093784;28;20409;-68
2021/08/01 11:54:31;;;;;;;2.97;2.77;;;22.50;99.90;;;;;;5093632;28;20923;-68
2021/08/01 11:57:02;;;;;;;2.77;2.23;;;23.10;99.90;;;;;;5093725;28;20441;-67
2021/08/01 11:59:29;;;;;;;2.30;2.10;;;23.60;99.90;;;;;;5093445;28;20447;-68
2021/08/01 12:01:56;;;;;;;2.87;2.67;;;23.60;99.90;;;;;;5093808;28;20799;-68
2021/08/01 12:04:22;;;;;;;3.60;2.57;;;23.90;99.90;;;;;;5093355;28;20422;-68
2021/08/01 12:06:51;;;;;;;4.93;2.10;;;23.40;99.90;;;;;;5093454;28;20773;-67
2021/08/01 12:09:27;;;;;;;2.07;1.90;;;22.70;99.90;;;;;;5093572;28;20828;-68
2021/08/01 12:11:57;;;;;;;2.30;2.10;;;22.10;99.90;;;;;;5093043;28;20427;-68
2021/08/01 12:14:30;;;;;;;6.00;3.67;;;22.30;99.90;;;;;;5080368;28;20411;-69
2021/08/01 12:17:00;;;;;;;4.07;3.53;;;23.20;99.90;;;;;;5080473;28;20744;-67
2021/08/01 12:19:35;;;;;;;12.47;11.17;;;23.10;99.90;;;;;;5093099;28;20853;-67
2021/08/01 12:22:12;;;;;;;12.53;8.70;;;23.50;99.90;;;;;;5092540;28;20480;-68
2021/08/01 12:24:40;;;;;;;5.40;3.50;;;24.00;99.90;;;;;;5093547;28;20395;-68
2021/08/01 12:27:14;;;;;;;3.40;3.10;;;24.00;99.90;;;;;;5091994;28;20409;-68
2021/08/01 12:29:44;;;;;;;4.60;4.00;;;23.70;99.90;;;;;;5093055;28;20937;-68
2021/08/01 12:32:16;;;;;;;2.90;2.30;;;24.80;99.90;;;;;;5092299;28;20498;-68
2021/08/01 12:34:42;;;;;;;2.60;2.20;;;24.90;99.90;;;;;;5092923;28;20420;-67
2021/08/01 12:37:08;;;;;;;3.97;2.47;;;24.70;99.90;;;;;;5092547;28;20440;-66
2021/08/01 12:39:43;;;;;;;4.63;2.57;;;23.30;99.90;;;;;;5092953;28;20409;-68
2021/08/01 12:42:08;;;;;;;2.40;2.20;;;23.50;99.90;;;;;;5092325;28;20205;-67
2021/08/01 12:44:34;;;;;;;5.30;4.03;;;23.50;99.90;;;;;;5092748;28;20419;-68
2021/08/01 12:47:06;;;;;;;2.43;2.30;;;23.20;99.90;;;;;;5092506;28;20183;-67
2021/08/01 12:49:33;;;;;;;7.87;7.00;;;23.70;99.90;;;;;;5092557;28;20173;-68